Time;durP1;ratioP1;P1;durP2;ratioP2;P2;SDS_P1;SDS_P2;PMS_P1;PMS_P2;Temp;Humidity;BMP_temperature;BMP_pressure;BME280_temperature;BME280_humidity;BME280_pressure;Samples;Min_cycle;Max_cycle;Signal;HPM_P1;HPM_P2
2022/08/19 08:53:55;;;;;;;9.98;5.22;;;;;;;43.72;18.47;100334.41;5069494;27;2236035;-85
2022/08/19 08:56:22;;;;;;;12.38;4.93;;;;;;;44.60;17.78;100341.69;5110667;28;20046;-86
2022/08/19 08:59:10;;;;;;;19.70;5.72;;;;;;;45.22;17.85;100351.97;5128420;28;20084;-86
2022/08/19 09:01:38;;;;;;;9.38;5.40;;;;;;;45.25;17.26;100353.97;5092953;28;20372;-82
2022/08/19 09:04:06;;;;;;;11.13;5.47;;;;;;;45.25;17.12;100350.34;5120979;28;20027;-85
2022/08/19 09:06:42;;;;;;;19.85;6.15;;;;;;;44.67;17.43;100347.38;5109240;28;20032;-83
2022/08/19 09:09:12;;;;;;;13.43;5.40;;;;;;;45.30;17.07;100349.94;5107226;28;20044;-86
2022/08/19 09:11:54;;;;;;;13.32;5.70;;;;;;;44.92;17.34;100345.84;5096302;28;20043;-85
2022/08/19 09:14:57;;;;;;;9.88;5.57;;;;;;;44.62;17.22;100359.13;5096736;28;20082;-85
2022/08/19 09:17:30;;;;;;;10.43;5.32;;;;;;;45.51;16.72;100354.78;5069643;28;20040;-84
2022/08/19 09:20:19;;;;;;;12.63;5.50;;;;;;;46.60;15.89;100354.06;5073051;28;20090;-87
2022/08/19 09:22:46;;;;;;;14.98;5.93;;;;;;;46.44;16.00;100331.00;5100603;28;20043;-84
2022/08/19 09:25:20;;;;;;;13.43;5.30;;;;;;;44.46;17.67;100358.66;5086302;28;20442;-84
2022/08/19 09:27:45;;;;;;;8.77;5.10;;;;;;;45.44;16.89;100361.25;5104094;28;20072;-84
2022/08/19 09:30:17;;;;;;;13.25;5.10;;;;;;;45.59;16.70;100355.59;5093604;28;20428;-86
2022/08/19 09:32:45;;;;;;;10.13;5.65;;;;;;;46.48;15.92;100354.53;5096283;28;20519;-85
2022/08/19 09:35:12;;;;;;;10.20;5.72;;;;;;;47.78;14.78;100361.66;5089822;28;20036;-84
2022/08/19 09:37:39;;;;;;;13.52;5.45;;;;;;;47.93;14.77;100352.97;5099842;28;20054;-85
2022/08/19 09:40:06;;;;;;;9.25;5.88;;;;;;;49.39;13.38;100369.28;5090009;28;20100;-85
2022/08/19 09:42:33;;;;;;;10.38;5.15;;;;;;;48.94;13.82;100366.72;5064547;28;20035;-85
2022/08/19 09:44:59;;;;;;;13.13;5.50;;;;;;;48.88;13.60;100372.09;5074008;28;20037;-83
2022/08/19 09:47:28;;;;;;;10.13;5.53;;;;;;;49.45;13.21;100353.25;5091369;28;20070;-84
2022/08/19 09:49:54;;;;;;;13.45;5.43;;;;;;;49.96;12.89;100355.97;5090070;28;20063;-82
2022/08/19 09:52:21;;;;;;;19.55;5.97;;;;;;;50.98;11.90;100365.59;5071899;28;20056;-87
2022/08/19 09:54:52;;;;;;;7.63;5.72;;;;;;;51.08;11.55;100360.88;5104963;28;20047;-85
2022/08/19 09:57:19;;;;;;;10.85;5.32;;;;;;;50.93;11.80;100345.28;5088311;28;20086;-85
2022/08/19 09:59:45;;;;;;;13.88;5.78;;;;;;;49.49;13.03;100328.28;5106799;28;20048;-85
2022/08/19 10:02:11;;;;;;;13.38;5.30;;;;;;;46.49;15.31;100354.13;5072993;28;20043;-84
2022/08/19 10:07:22;;;;;;;8.95;5.35;;;;;;;48.80;13.39;100362.84;5091352;28;20042;-84
2022/08/19 10:09:49;;;;;;;25.58;6.13;;;;;;;49.16;13.36;100359.44;5090150;28;20046;-85
2022/08/19 10:12:15;;;;;;;27.83;7.35;;;;;;;49.74;12.85;100344.19;5093761;28;20028;-85
2022/08/19 10:14:45;;;;;;;10.05;5.40;;;;;;;47.64;14.33;100346.78;5098093;28;20196;-84
2022/08/19 10:17:15;;;;;;;12.30;5.25;;;;;;;45.24;15.98;100357.25;5099030;28;20188;-85
2022/08/19 10:19:41;;;;;;;11.02;5.47;;;;;;;46.74;15.13;100356.84;5099187;28;20021;-88
2022/08/19 10:22:08;;;;;;;14.38;5.95;;;;;;;47.69;14.33;100357.69;5101497;28;20427;-86
2022/08/19 10:24:38;;;;;;;22.65;6.88;;;;;;;47.20;14.91;100354.09;5091480;28;20101;-88
2022/08/19 10:27:05;;;;;;;12.02;5.55;;;;;;;47.69;14.68;100352.00;5073576;28;20126;-86
2022/08/19 10:29:35;;;;;;;12.52;5.85;;;;;;;48.65;13.63;100367.16;5098659;28;20031;-86
2022/08/19 10:32:04;;;;;;;12.38;5.55;;;;;;;49.08;12.91;100360.81;5094562;28;20040;-86
2022/08/19 10:34:42;;;;;;;13.68;5.68;;;;;;;50.19;11.79;100355.91;5079628;28;20389;-86
2022/08/19 10:37:10;;;;;;;11.85;5.40;;;;;;;51.09;11.01;100331.81;5095840;28;20036;-84
2022/08/19 10:39:36;;;;;;;13.93;5.40;;;;;;;50.42;11.96;100348.50;5097998;28;20020;-84
2022/08/19 10:42:10;;;;;;;7.43;4.80;;;;;;;48.72;12.62;100366.25;5094425;28;20372;-84
2022/08/19 10:44:36;;;;;;;15.65;5.43;;;;;;;49.00;12.48;100370.72;5100887;28;20062;-85
2022/08/19 10:47:03;;;;;;;13.55;5.10;;;;;;;48.98;11.87;100344.66;5074836;28;20119;-85
2022/08/19 10:49:29;;;;;;;8.18;4.95;;;;;;;49.96;11.74;100362.47;5082623;28;20044;-85
2022/08/19 10:57:28;;;;;;;11.38;5.20;;;;;;;50.59;11.37;100373.03;5079960;28;20054;-84
2022/08/19 10:59:55;;;;;;;9.50;5.63;;;;;;;49.33;14.88;100383.22;5076826;28;20535;-84
2022/08/19 11:02:21;;;;;;;9.77;5.57;;;;;;;47.57;17.36;100362.69;5084675;28;20417;-84
2022/08/19 11:04:49;;;;;;;13.48;5.95;;;;;;;46.58;18.89;100384.13;5086151;28;20028;-84
2022/08/19 11:07:15;;;;;;;15.75;5.82;;;;;;;46.95;18.96;100389.22;5095365;28;20023;-84
2022/08/19 11:09:41;;;;;;;8.68;5.70;;;;;;;45.95;20.08;100376.22;5091266;28;20036;-85
2022/08/19 11:12:07;;;;;;;9.40;6.32;;;;;;;41.74;26.59;100393.53;5071439;28;20514;-87
2022/08/19 11:14:34;;;;;;;13.80;6.50;;;;;;;41.46;27.13;100380.56;5074304;28;20068;-86
2022/08/19 11:16:59;;;;;;;13.30;7.05;;;;;;;40.70;28.02;100381.19;5094181;28;20065;-87
2022/08/19 11:19:25;;;;;;;12.98;6.65;;;;;;;39.34;31.21;100385.66;5104095;28;20135;-86
2022/08/19 11:21:51;;;;;;;9.68;6.95;;;;;;;37.43;34.67;100353.91;5068256;28;20021;-87
2022/08/19 11:24:27;;;;;;;12.07;7.47;;;;;;;36.28;37.55;100375.00;5094760;28;20092;-87
2022/08/19 11:27:04;;;;;;;12.40;7.68;;;;;;;35.39;39.73;100380.59;5080585;28;20039;-89
2022/08/19 11:29:31;;;;;;;13.60;8.48;;;;;;;35.15;40.74;100388.75;5102052;28;20036;-87
2022/08/19 11:31:57;;;;;;;15.15;8.70;;;;;;;35.32;40.29;100387.88;5097574;28;20027;-87
2022/08/19 11:34:25;;;;;;;10.43;8.40;;;;;;;34.93;39.95;100365.41;5098864;28;20517;-88
2022/08/19 11:36:52;;;;;;;14.43;8.02;;;;;;;34.56;37.95;100373.34;5093279;28;20133;-87
2022/08/19 11:39:20;;;;;;;11.02;8.60;;;;;;;33.77;40.90;100352.91;5086652;28;20052;-86
2022/08/19 11:41:47;;;;;;;14.30;9.40;;;;;;;33.80;42.57;100360.63;5078753;28;20044;-86
2022/08/19 11:44:14;;;;;;;16.10;8.75;;;;;;;33.53;41.84;100358.88;5091564;28;20060;-86
2022/08/19 11:46:46;;;;;;;15.68;8.82;;;;;;;33.96;40.93;100374.09;5074547;28;20036;-89
2022/08/19 11:49:15;;;;;;;10.63;8.38;;;;;;;33.91;40.38;100382.63;5077981;28;20391;-95
2022/08/19 11:51:43;;;;;;;11.18;8.48;;;;;;;33.00;42.92;100352.22;5084872;28;20040;-94
2022/08/19 11:54:11;;;;;;;10.50;8.10;;;;;;;33.60;40.44;100369.59;5062028;28;20064;-88
2022/08/19 11:56:39;;;;;;;14.63;8.90;;;;;;;33.42;41.21;100380.63;5087103;28;20101;-88
2022/08/19 11:59:05;;;;;;;14.18;9.20;;;;;;;32.55;43.82;100380.09;5076023;28;20055;-89
2022/08/19 12:01:31;;;;;;;11.93;9.05;;;;;;;32.88;44.48;100382.63;5077099;28;20033;-87
2022/08/19 12:03:58;;;;;;;12.43;9.25;;;;;;;32.35;45.67;100383.31;5075576;28;20473;-87
2022/08/19 12:06:28;;;;;;;14.05;9.13;;;;;;;32.78;44.29;100357.84;5074790;28;20039;-88
2022/08/19 12:09:05;;;;;;;12.55;8.10;;;;;;;33.08;42.66;100369.31;5089647;28;20024;-88
2022/08/19 12:11:30;;;;;;;18.67;8.63;;;;;;;32.20;44.89;100367.00;5076789;28;20043;-86
2022/08/19 12:13:56;;;;;;;14.25;8.73;;;;;;;32.04;46.42;100367.34;5088286;28;20411;-86
2022/08/19 12:16:25;;;;;;;17.13;8.93;;;;;;;32.26;45.11;100374.88;5084556;28;20086;-87
2022/08/19 12:18:51;;;;;;;14.18;8.88;;;;;;;32.24;44.97;100368.00;5075354;28;20021;-86
2022/08/19 12:21:21;;;;;;;12.73;8.90;;;;;;;31.75;46.04;100351.81;5078483;28;20027;-89
2022/08/19 12:23:49;;;;;;;12.88;8.75;;;;;;;31.86;46.80;100362.69;5101271;28;20064;-87
2022/08/19 12:26:16;;;;;;;14.40;9.25;;;;;;;31.51;47.82;100362.31;5054332;28;20395;-88
2022/08/19 12:28:42;;;;;;;14.00;9.55;;;;;;;31.10;48.74;100385.28;5086958;28;20098;-88
2022/08/19 12:31:11;;;;;;;11.68;8.88;;;;;;;31.47;48.10;100366.84;5085744;28;20028;-87
2022/08/19 12:33:45;;;;;;;17.48;9.02;;;;;;;31.59;47.61;100383.00;5078878;28;20032;-88
2022/08/19 12:36:17;;;;;;;12.77;9.43;;;;;;;31.61;47.32;100377.94;5073036;28;20101;-88
2022/08/19 12:38:43;;;;;;;11.60;8.18;;;;;;;31.46;47.53;100359.63;5086603;28;20033;-89
2022/08/19 12:41:18;;;;;;;13.70;8.88;;;;;;;31.25;47.45;100360.00;5070090;28;20021;-88
2022/08/19 12:43:43;;;;;;;15.17;9.20;;;;;;;30.99;48.25;100362.44;5074566;28;20043;-88
2022/08/19 12:46:10;;;;;;;12.10;9.15;;;;;;;31.22;48.37;100374.50;5070717;28;20745;-86
2022/08/19 12:48:41;;;;;;;11.70;8.93;;;;;;;31.21;48.12;100383.97;5100897;28;20035;-86
2022/08/19 12:51:13;;;;;;;13.80;9.55;;;;;;;31.34;47.01;100369.25;5091882;28;20506;-82
2022/08/19 12:53:38;;;;;;;12.50;9.30;;;;;;;31.42;47.15;100359.44;5083306;28;20051;-83
2022/08/19 12:56:05;;;;;;;11.82;8.43;;;;;;;31.17;47.52;100371.81;5092579;28;20406;-91
2022/08/19 12:59:03;;;;;;;12.25;8.30;;;;;;;31.34;47.12;100385.94;5084672;28;20036;-89
2022/08/19 13:01:32;;;;;;;12.02;8.20;;;;;;;31.36;47.28;100382.84;5087863;28;20036;-90
2022/08/19 13:04:16;;;;;;;14.18;9.10;;;;;;;31.08;48.00;100384.75;5081447;28;20116;-89
2022/08/19 13:06:42;;;;;;;15.43;9.07;;;;;;;31.15;48.23;100379.63;5079374;28;20033;-88
2022/08/19 13:09:07;;;;;;;16.55;9.10;;;;;;;30.30;49.80;100364.94;5070717;28;20027;-88
2022/08/19 13:11:39;;;;;;;14.05;9.50;;;;;;;30.11;51.23;100387.06;5081017;28;20132;-89
2022/08/19 13:14:08;;;;;;;15.07;9.15;;;;;;;29.91;51.64;100370.72;5088453;28;20087;-92
2022/08/19 13:16:35;;;;;;;12.73;8.77;;;;;;;29.78;51.64;100366.72;5084763;28;20526;-90
2022/08/19 13:19:04;;;;;;;13.57;8.75;;;;;;;29.74;51.99;100380.34;5066772;28;20035;-89
2022/08/19 13:21:30;;;;;;;16.23;9.00;;;;;;;30.05;50.97;100378.00;5082780;28;20025;-90
2022/08/19 13:23:56;;;;;;;11.07;8.68;;;;;;;30.17;50.23;100362.88;5086366;28;20032;-90
2022/08/19 13:26:27;;;;;;;12.57;8.70;;;;;;;30.04;50.42;100354.19;5069722;28;20060;-89
2022/08/19 13:34:39;;;;;;;14.63;8.68;;;;;;;30.44;48.92;100359.47;5081223;28;20048;-91
2022/08/19 13:37:06;;;;;;;12.98;8.65;;;;;;;30.55;48.79;100377.56;5088692;28;20024;-91
2022/08/19 13:39:39;;;;;;;21.33;9.25;;;;;;;30.52;49.01;100363.50;5075157;28;20044;-90
2022/08/19 13:42:08;;;;;;;18.45;10.23;;;;;;;30.88;48.22;100384.00;5066721;28;20040;-91
2022/08/19 13:44:33;;;;;;;15.32;8.45;;;;;;;30.44;49.27;100385.22;5069520;28;20364;-89
2022/08/19 13:47:06;;;;;;;19.33;9.30;;;;;;;30.45;49.61;100386.06;5072797;28;20101;-89
2022/08/19 13:49:34;;;;;;;10.30;8.07;;;;;;;30.29;50.06;100389.03;5062274;28;20013;-89
2022/08/19 13:52:01;;;;;;;10.60;8.20;;;;;;;30.29;48.70;100375.19;5091152;28;20051;-88
2022/08/19 13:54:27;;;;;;;14.30;8.70;;;;;;;29.70;50.37;100370.97;5092658;28;20480;-88
2022/08/19 13:56:54;;;;;;;14.55;9.07;;;;;;;29.80;51.35;100387.47;5097513;28;20423;-88
2022/08/19 13:59:20;;;;;;;13.27;8.60;;;;;;;29.90;50.87;100386.53;5085759;28;20098;-89
2022/08/19 14:01:47;;;;;;;14.02;8.80;;;;;;;29.93;50.29;100369.28;5085415;28;20051;-87
2022/08/19 14:04:14;;;;;;;16.65;8.07;;;;;;;30.26;49.48;100388.84;5097145;28;20039;-88
2022/08/19 14:06:42;;;;;;;11.20;8.13;;;;;;;30.05;50.29;100388.25;5092852;28;20036;-88
2022/08/19 14:09:11;;;;;;;13.18;8.20;;;;;;;30.23;49.92;100390.22;5091523;28;20044;-87
2022/08/19 14:11:38;;;;;;;13.23;7.78;;;;;;;30.18;49.19;100389.44;5085569;28;20036;-86
2022/08/19 14:14:03;;;;;;;10.80;7.30;;;;;;;29.31;50.38;100387.72;5078932;28;20028;-88
2022/08/19 14:16:30;;;;;;;13.38;7.30;;;;;;;29.40;50.67;100385.97;5090510;28;20624;-86
2022/08/19 14:18:55;;;;;;;11.82;7.30;;;;;;;29.14;50.86;100380.69;5086907;28;20080;-86
2022/08/19 14:21:23;;;;;;;12.10;7.50;;;;;;;29.12;51.82;100394.00;5072652;28;20028;-86
2022/08/19 14:23:49;;;;;;;15.93;8.60;;;;;;;28.87;52.98;100399.72;5077832;28;20143;-86
2022/08/19 14:26:16;;;;;;;12.35;7.22;;;;;;;28.82;53.14;100386.75;5096659;28;20032;-86
2022/08/19 14:28:42;;;;;;;11.32;7.78;;;;;;;28.57;53.44;100371.22;5073363;28;20139;-86
2022/08/19 14:31:11;;;;;;;14.68;8.10;;;;;;;28.57;53.55;100360.97;5068373;28;20122;-86
2022/08/19 14:33:36;;;;;;;16.35;8.50;;;;;;;28.95;53.03;100382.50;5075780;28;20408;-85
2022/08/19 14:36:03;;;;;;;15.63;7.63;;;;;;;28.89;53.46;100380.88;5084536;28;20028;-86
2022/08/19 14:38:31;;;;;;;15.15;7.90;;;;;;;28.93;53.55;100374.50;5091632;28;20079;-87
2022/08/19 14:41:15;;;;;;;12.13;8.07;;;;;;;29.04;53.82;100369.69;5066065;28;20044;-88
2022/08/19 14:43:41;;;;;;;14.00;7.97;;;;;;;28.89;53.09;100356.00;5092981;28;20039;-90
2022/08/19 14:46:12;;;;;;;11.77;8.10;;;;;;;28.95;52.83;100390.81;5102568;28;20051;-88
2022/08/19 14:48:39;;;;;;;13.43;7.68;;;;;;;28.64;54.12;100374.47;5101799;28;20024;-88
2022/08/19 14:51:07;;;;;;;14.05;7.47;;;;;;;28.48;53.91;100372.94;5099248;28;20044;-89
2022/08/19 14:53:35;;;;;;;14.15;7.68;;;;;;;28.59;53.38;100358.75;5096753;28;20037;-87
2022/08/19 14:56:10;;;;;;;14.10;8.38;;;;;;;28.77;52.73;100384.03;5086645;28;20487;-89
2022/08/19 14:58:36;;;;;;;13.23;7.10;;;;;;;28.96;52.65;100384.16;5098787;28;20102;-87
2022/08/19 15:01:03;;;;;;;13.02;7.30;;;;;;;29.10;51.96;100385.16;5058666;28;20036;-87
2022/08/19 15:03:28;;;;;;;14.20;7.30;;;;;;;29.28;51.71;100396.63;5083400;28;20154;-88
2022/08/19 15:05:57;;;;;;;10.57;6.88;;;;;;;29.07;51.41;100369.13;5093366;28;20070;-88
2022/08/19 15:08:24;;;;;;;14.90;7.57;;;;;;;29.23;50.97;100373.41;5085986;28;20029;-87
2022/08/19 15:10:52;;;;;;;12.27;7.15;;;;;;;29.49;50.76;100386.97;5090988;28;20032;-88
2022/08/19 15:13:18;;;;;;;12.80;7.05;;;;;;;29.06;52.38;100375.78;5078640;28;20100;-89
2022/08/19 15:15:45;;;;;;;19.17;7.30;;;;;;;29.25;52.03;100375.88;5083316;28;20028;-87
2022/08/19 15:18:12;;;;;;;10.20;6.93;;;;;;;29.01;51.98;100365.56;5091947;28;20050;-87
2022/08/19 15:20:38;;;;;;;11.85;6.88;;;;;;;28.82;52.46;100373.78;5091225;28;20028;-87
2022/08/19 15:23:03;;;;;;;13.93;7.40;;;;;;;28.93;52.31;100365.38;5093089;28;20404;-87
2022/08/19 15:25:29;;;;;;;11.55;7.20;;;;;;;29.05;52.41;100376.88;5073659;28;20028;-88
2022/08/19 15:27:55;;;;;;;14.65;7.50;;;;;;;29.20;51.75;100375.94;5079308;28;20426;-89
2022/08/19 15:30:26;;;;;;;11.63;7.68;;;;;;;29.29;51.95;100376.09;5090774;28;20024;-88
2022/08/19 15:32:52;;;;;;;13.63;7.30;;;;;;;29.35;51.91;100358.34;5086933;28;20418;-87
2022/08/19 15:35:19;;;;;;;13.35;7.18;;;;;;;29.19;51.68;100344.66;5075161;28;20431;-87
2022/08/19 15:37:53;;;;;;;14.95;7.20;;;;;;;29.19;52.11;100372.31;5072957;28;20044;-86
2022/08/19 15:40:22;;;;;;;17.05;6.60;;;;;;;29.31;52.01;100366.38;5092380;28;20144;-84
2022/08/19 15:42:49;;;;;;;9.45;6.95;;;;;;;29.22;52.02;100360.69;5101618;28;20229;-85
2022/08/19 15:45:15;;;;;;;12.45;7.47;;;;;;;29.36;51.25;100358.06;5094826;28;20392;-84
2022/08/19 15:47:40;;;;;;;8.05;6.95;;;;;;;29.49;51.32;100370.34;5097588;28;20040;-84
2022/08/19 15:50:07;;;;;;;13.88;6.95;;;;;;;29.44;51.25;100378.72;5085318;28;20047;-85
2022/08/19 15:52:33;;;;;;;12.52;7.90;;;;;;;29.28;52.04;100375.28;5096821;28;20048;-84
2022/08/19 15:54:59;;;;;;;9.20;7.30;;;;;;;29.22;51.87;100360.69;5065811;28;20028;-85
2022/08/19 16:08:06;;;;;;;10.50;6.68;;;;;;;28.60;53.64;100365.09;5096677;28;20346;-86
2022/08/19 16:10:32;;;;;;;11.35;6.97;;;;;;;28.45;53.93;100354.09;5089304;28;20098;-84
2022/08/19 16:12:59;;;;;;;15.07;8.40;;;;;;;28.54;54.02;100375.38;5083495;28;20039;-84
2022/08/19 16:15:26;;;;;;;12.43;7.45;;;;;;;28.50;53.64;100366.00;5100262;28;20036;-85
2022/08/19 16:17:53;;;;;;;11.27;8.23;;;;;;;28.25;54.40;100375.25;5078248;28;20507;-83
2022/08/19 16:20:20;;;;;;;15.15;7.65;;;;;;;28.17;54.75;100375.88;5070107;28;20043;-86
2022/08/19 16:22:47;;;;;;;15.68;9.35;;;;;;;28.08;55.27;100377.56;5076541;28;20536;-86
2022/08/19 16:25:16;;;;;;;14.25;7.90;;;;;;;27.84;56.10;100352.53;5088682;28;20032;-85
2022/08/19 16:27:43;;;;;;;14.82;9.15;;;;;;;28.08;55.89;100375.63;5092198;28;20032;-85
2022/08/19 16:30:10;;;;;;;14.90;8.23;;;;;;;28.02;55.64;100387.00;5069112;28;20028;-86
2022/08/19 16:32:35;;;;;;;11.02;7.60;;;;;;;27.91;56.11;100392.56;5082078;28;20074;-86
2022/08/19 16:35:05;;;;;;;13.60;7.40;;;;;;;27.69;56.88;100394.84;5089655;28;20056;-86
2022/08/19 16:37:30;;;;;;;15.18;8.45;;;;;;;27.64;57.16;100392.91;5092606;28;20090;-85
2022/08/19 16:39:56;;;;;;;14.02;8.15;;;;;;;27.57;57.00;100393.22;5096491;28;20484;-87
2022/08/19 16:42:22;;;;;;;18.08;9.63;;;;;;;27.49;57.78;100395.75;5093100;28;20495;-86
2022/08/19 16:44:47;;;;;;;13.20;8.32;;;;;;;27.46;57.54;100404.56;5091097;28;20032;-86
2022/08/19 16:47:16;;;;;;;12.70;7.35;;;;;;;27.35;58.38;100406.53;5091877;28;20028;-84
2022/08/19 16:49:43;;;;;;;17.35;10.82;;;;;;;27.23;58.39;100400.47;5092281;28;20077;-84
2022/08/19 16:52:11;;;;;;;13.57;8.30;;;;;;;27.19;58.48;100410.38;5088980;28;20056;-84
2022/08/19 16:54:40;;;;;;;11.48;7.55;;;;;;;26.95;59.44;100409.03;5096783;28;20521;-85
2022/08/19 16:57:05;;;;;;;18.30;10.85;;;;;;;26.70;59.81;100401.56;5099401;28;20036;-85
2022/08/19 16:59:34;;;;;;;13.90;9.25;;;;;;;26.74;60.38;100418.41;5076175;28;20036;-85
2022/08/19 17:02:00;;;;;;;13.38;8.88;;;;;;;26.74;60.08;100421.97;5092778;28;20043;-85
2022/08/19 17:04:26;;;;;;;14.20;8.35;;;;;;;26.65;60.83;100415.34;5095372;28;20063;-83
2022/08/19 17:06:52;;;;;;;12.95;7.60;;;;;;;26.50;60.77;100418.03;5059535;28;20173;-84
2022/08/19 17:09:18;;;;;;;12.25;8.50;;;;;;;26.48;60.79;100420.22;5096223;28;20460;-84
2022/08/19 17:11:44;;;;;;;12.43;8.05;;;;;;;26.29;61.62;100420.78;5090345;28;20510;-83
2022/08/19 17:14:09;;;;;;;10.73;8.57;;;;;;;26.33;61.51;100419.09;5097575;28;20063;-84
2022/08/19 17:16:35;;;;;;;14.85;8.25;;;;;;;26.29;61.50;100412.50;5098405;28;20028;-85
2022/08/19 17:19:02;;;;;;;12.80;8.05;;;;;;;26.39;60.79;100413.63;5102928;28;20500;-85
2022/08/19 17:21:30;;;;;;;16.55;8.70;;;;;;;26.41;61.15;100419.66;5094539;28;20480;-85
2022/08/19 17:23:56;;;;;;;11.40;7.68;;;;;;;26.38;60.53;100426.56;5103553;28;20096;-85
2022/08/19 17:26:22;;;;;;;15.75;8.25;;;;;;;26.32;61.14;100420.22;5083162;28;20123;-83
2022/08/19 17:28:50;;;;;;;10.85;8.63;;;;;;;26.25;60.91;100421.59;5091921;28;20838;-84
2022/08/19 17:31:16;;;;;;;13.50;8.55;;;;;;;26.18;60.85;100410.81;5093422;28;20054;-84
2022/08/19 17:33:41;;;;;;;9.70;8.15;;;;;;;26.26;61.39;100421.28;5105084;28;20114;-85
2022/08/19 17:36:08;;;;;;;13.68;8.57;;;;;;;26.08;61.76;100421.78;5088714;28;20062;-84
2022/08/19 17:38:34;;;;;;;13.55;8.38;;;;;;;26.09;61.23;100423.44;5092420;28;20012;-84
2022/08/19 17:41:04;;;;;;;12.82;8.20;;;;;;;25.89;61.90;100411.28;5078661;28;20071;-85
2022/08/19 17:43:31;;;;;;;12.15;7.47;;;;;;;25.84;62.11;100416.69;5098876;28;20047;-87
2022/08/19 17:45:59;;;;;;;11.20;8.00;;;;;;;25.79;62.87;100433.19;5095029;28;20064;-86
2022/08/19 17:48:26;;;;;;;9.75;8.27;;;;;;;25.83;62.87;100431.56;5099862;28;20028;-85
2022/08/19 17:50:52;;;;;;;11.63;8.27;;;;;;;25.87;62.47;100431.88;5100372;28;20035;-85
2022/08/19 17:53:17;;;;;;;14.75;8.00;;;;;;;25.93;62.52;100428.06;5099471;28;20044;-85
2022/08/19 17:55:43;;;;;;;12.73;8.20;;;;;;;25.85;62.75;100421.13;5093866;28;20035;-85
2022/08/19 17:58:09;;;;;;;17.17;8.07;;;;;;;25.93;62.22;100439.09;5094856;28;20513;-85
2022/08/19 18:00:34;;;;;;;14.18;8.30;;;;;;;25.93;62.53;100446.53;5075012;28;20032;-85
2022/08/19 18:03:01;;;;;;;11.98;8.25;;;;;;;25.97;62.66;100442.16;5098323;28;20046;-84
2022/08/19 18:05:32;;;;;;;16.70;8.45;;;;;;;25.96;62.86;100435.78;5064150;28;20479;-84
2022/08/19 18:07:58;;;;;;;10.57;8.48;;;;;;;26.06;62.58;100448.78;5088051;28;20993;-84
2022/08/19 18:10:24;;;;;;;12.23;8.27;;;;;;;26.09;62.62;100442.72;5094773;28;20145;-83
2022/08/19 18:12:50;;;;;;;15.13;8.70;;;;;;;26.09;62.65;100451.00;5094977;28;20123;-85
2022/08/19 18:15:16;;;;;;;16.45;8.77;;;;;;;26.05;62.28;100441.59;5097024;28;20107;-83
2022/08/19 18:17:41;;;;;;;17.48;9.27;;;;;;;26.06;62.23;100435.03;5095156;28;20043;-85
2022/08/19 18:20:08;;;;;;;22.23;9.45;;;;;;;26.02;61.75;100440.22;5092902;28;20490;-84
2022/08/19 18:22:36;;;;;;;15.60;10.35;;;;;;;25.96;61.93;100430.28;5091772;28;20024;-84
2022/08/19 18:25:24;;;;;;;17.55;10.15;;;;;;;26.05;61.35;100458.13;5070910;28;20024;-85
2022/08/19 18:27:58;;;;;;;21.92;10.60;;;;;;;26.04;61.50;100459.25;5082352;28;20093;-84
2022/08/19 18:30:23;;;;;;;18.05;11.05;;;;;;;25.97;60.75;100453.16;5091137;28;20107;-84
2022/08/19 18:32:51;;;;;;;17.50;10.77;;;;;;;25.87;60.64;100445.66;5095376;28;20131;-85
2022/08/19 18:35:19;;;;;;;19.08;11.63;;;;;;;25.93;60.83;100457.53;5098057;28;20096;-85
2022/08/19 18:37:46;;;;;;;15.02;10.90;;;;;;;25.89;60.86;100460.84;5094524;28;20421;-84
2022/08/19 18:51:15;;;;;;;17.63;10.98;;;;;;;25.66;61.32;100461.19;5086137;28;20514;-86
2022/08/19 18:53:41;;;;;;;17.05;11.80;;;;;;;25.64;61.11;100460.66;5094973;28;20044;-85
2022/08/19 18:56:12;;;;;;;20.88;11.05;;;;;;;25.68;61.48;100461.75;5090956;28;20039;-85
2022/08/19 18:58:38;;;;;;;15.75;11.63;;;;;;;25.60;61.69;100460.34;5096580;28;20555;-90
2022/08/19 19:01:11;;;;;;;20.58;11.73;;;;;;;25.59;61.72;100452.34;5071799;28;20105;-85
2022/08/19 19:03:44;;;;;;;13.80;11.50;;;;;;;25.56;61.77;100458.41;5074847;28;20036;-87
2022/08/19 19:06:17;;;;;;;16.40;10.82;;;;;;;25.57;62.32;100452.63;5074688;28;20116;-92
2022/08/19 19:08:43;;;;;;;17.60;11.45;;;;;;;25.56;62.29;100458.41;5073372;28;20050;-85
2022/08/19 19:11:09;;;;;;;20.67;12.18;;;;;;;25.54;62.41;100460.56;5088371;28;20125;-86
2022/08/19 19:13:45;;;;;;;16.92;11.98;;;;;;;25.55;62.88;100462.25;5090540;28;20529;-85
2022/08/19 19:18:56;;;;;;;20.50;12.43;;;;;;;25.65;62.53;100467.81;5090094;28;20040;-83
2022/08/19 19:21:23;;;;;;;27.08;13.70;;;;;;;25.63;62.61;100470.81;5088060;28;20026;-83
2022/08/19 19:23:49;;;;;;;16.30;11.90;;;;;;;25.68;62.43;100461.75;5096198;28;20036;-83
2022/08/19 19:26:15;;;;;;;18.70;12.75;;;;;;;25.66;62.53;100469.47;5089506;28;20062;-81
2022/08/19 19:28:44;;;;;;;17.60;12.02;;;;;;;25.73;62.67;100474.72;5096104;28;20027;-82
2022/08/19 19:31:27;;;;;;;19.83;12.05;;;;;;;25.75;62.33;100478.06;5090074;28;20117;-81
2022/08/19 19:33:54;;;;;;;21.23;12.27;;;;;;;25.74;62.50;100466.22;5091992;28;20079;-83
2022/08/19 19:36:19;;;;;;;20.52;12.10;;;;;;;25.75;62.29;100472.53;5090656;28;20507;-83
2022/08/19 19:38:46;;;;;;;23.05;12.77;;;;;;;25.81;62.63;100477.81;5093501;28;20036;-82
2022/08/19 19:41:12;;;;;;;19.15;11.85;;;;;;;25.73;62.31;100452.72;5071454;28;20093;-85
2022/08/19 19:43:38;;;;;;;19.98;12.85;;;;;;;25.88;62.29;100478.44;5095399;28;20062;-81
2022/08/19 19:46:04;;;;;;;22.63;12.75;;;;;;;25.86;62.55;100466.00;5096509;28;20036;-81
2022/08/19 19:48:31;;;;;;;21.67;11.77;;;;;;;25.82;62.59;100473.97;5080582;28;20028;-85
2022/08/19 19:50:58;;;;;;;23.10;12.32;;;;;;;25.84;62.54;100462.69;5059075;28;20044;-83
2022/08/19 19:53:24;;;;;;;23.63;12.27;;;;;;;25.86;62.24;100475.13;5088005;28;20055;-81
2022/08/19 19:55:53;;;;;;;21.35;12.57;;;;;;;25.81;62.26;100472.31;5078128;28;20067;-84
2022/08/19 19:58:20;;;;;;;18.17;12.45;;;;;;;25.84;62.54;100474.53;5082748;28;20210;-84
2022/08/19 20:00:46;;;;;;;21.20;12.40;;;;;;;25.78;62.56;100469.25;5077248;28;20040;-84
2022/08/19 20:03:19;;;;;;;25.83;13.00;;;;;;;25.70;62.81;100465.91;5086984;28;20044;-84
2022/08/19 20:05:45;;;;;;;19.58;12.70;;;;;;;25.61;63.01;100473.00;5088932;28;20385;-83
2022/08/19 20:11:04;;;;;;;17.40;12.43;;;;;;;25.36;64.13;100470.94;5073584;28;20526;-84
2022/08/19 20:13:30;;;;;;;21.25;12.30;;;;;;;25.38;64.24;100485.25;5085236;28;20090;-83
2022/08/19 20:15:57;;;;;;;19.75;12.20;;;;;;;25.42;64.53;100491.88;5069884;28;20036;-84
2022/08/19 20:18:23;;;;;;;17.02;12.40;;;;;;;25.17;65.42;100491.63;5089754;28;20054;-83
2022/08/19 20:20:49;;;;;;;19.60;12.23;;;;;;;25.15;65.01;100480.09;5086947;28;20059;-83
2022/08/19 20:23:20;;;;;;;20.52;12.35;;;;;;;25.16;65.58;100481.72;5086317;28;20036;-83
2022/08/19 20:25:46;;;;;;;17.48;12.63;;;;;;;25.03;66.18;100483.00;5083748;28;20040;-82
2022/08/19 20:28:12;;;;;;;17.52;12.48;;;;;;;24.79;66.15;100461.31;5086362;28;20031;-84
2022/08/19 20:30:39;;;;;;;20.50;12.68;;;;;;;24.74;66.43;100457.69;5092999;28;20032;-82
2022/08/19 20:33:05;;;;;;;16.17;12.32;;;;;;;24.86;66.62;100477.59;5092461;28;20023;-84
2022/08/19 20:35:33;;;;;;;18.98;12.15;;;;;;;24.94;66.41;100479.91;5066432;28;20037;-83
2022/08/19 20:37:59;;;;;;;23.40;12.25;;;;;;;24.95;66.00;100469.72;5064172;28;20076;-86
2022/08/19 20:40:42;;;;;;;17.98;12.18;;;;;;;24.95;66.00;100475.22;5077671;28;20165;-85
2022/08/19 20:43:09;;;;;;;19.13;12.32;;;;;;;24.88;66.48;100471.84;5090364;28;20416;-85
2022/08/19 20:45:35;;;;;;;17.35;12.45;;;;;;;24.84;66.73;100460.53;5073811;28;20158;-85
2022/08/19 20:48:06;;;;;;;16.70;12.00;;;;;;;24.93;66.25;100478.22;5068279;28;20397;-85
2022/08/19 20:50:34;;;;;;;17.85;11.85;;;;;;;24.97;66.43;100481.28;5072352;28;20071;-85
2022/08/19 20:53:02;;;;;;;24.98;12.23;;;;;;;25.00;66.27;100469.75;5090099;28;20051;-86
2022/08/19 20:55:30;;;;;;;19.20;12.60;;;;;;;24.89;66.45;100477.09;5075133;28;20111;-85